Time;durP1;ratioP1;P1;durP2;ratioP2;P2;SDS_P1;SDS_P2;PMS_P1;PMS_P2;Temp;Humidity;BMP_temperature;BMP_pressure;BME280_temperature;BME280_humidity;BME280_pressure;Samples;Min_cycle;Max_cycle;Signal;HPM_P1;HPM_P2
2023/06/02 00:01:07;;;;;;;12.70;6.68;;;21.50;81.60;;;;;;5055430;28;20024;-69
2023/06/02 00:03:36;;;;;;;7.82;6.43;;;21.50;81.60;;;;;;5055491;28;20035;-69
2023/06/02 00:06:08;;;;;;;12.75;5.55;;;21.50;81.50;;;;;;5055192;28;20040;-69
2023/06/02 00:08:40;;;;;;;7.68;5.75;;;21.50;81.70;;;;;;5055218;28;20049;-69
2023/06/02 00:11:07;;;;;;;8.88;6.22;;;21.40;81.80;;;;;;5047552;28;20084;-68
2023/06/02 00:13:33;;;;;;;7.25;5.75;;;21.40;81.80;;;;;;5056075;28;20082;-68
2023/06/02 00:15:59;;;;;;;10.65;6.00;;;21.40;81.80;;;;;;5055829;28;20063;-69
2023/06/02 00:18:28;;;;;;;9.30;6.25;;;21.40;81.90;;;;;;5055608;28;20056;-68
2023/06/02 00:21:18;;;;;;;9.13;6.35;;;21.30;82.00;;;;;;5055444;28;20025;-69
2023/06/02 00:31:27;;;;;;;11.77;6.10;;;21.20;81.80;;;;;;4955228;28;20055;-68
2023/06/02 00:40:50;;;;;;;12.85;6.55;;;21.10;81.90;;;;;;4934567;28;20037;-68
2023/06/02 00:46:51;;;;;;;14.63;7.18;;;21.00;81.80;;;;;;4976838;28;20061;-69
2023/06/02 00:49:17;;;;;;;10.23;6.22;;;21.00;82.00;;;;;;4976974;28;20495;-68
2023/06/02 00:51:45;;;;;;;8.68;5.95;;;20.90;82.10;;;;;;5030674;28;20455;-69
2023/06/02 00:54:13;;;;;;;8.43;5.82;;;20.90;82.30;;;;;;5054688;28;20025;-68
2023/06/02 00:56:39;;;;;;;10.13;6.40;;;20.90;82.30;;;;;;5054433;28;20032;-69
2023/06/02 00:59:05;;;;;;;8.60;6.45;;;20.90;82.60;;;;;;5052040;28;20365;-68
2023/06/02 01:01:32;;;;;;;14.05;6.88;;;20.90;82.70;;;;;;5051591;28;20120;-69
2023/06/02 01:03:58;;;;;;;11.20;6.18;;;20.80;82.50;;;;;;5051631;28;20420;-69
2023/06/02 01:06:34;;;;;;;9.00;6.70;;;20.90;82.80;;;;;;5053675;28;20060;-69
2023/06/02 01:09:05;;;;;;;11.00;6.72;;;20.80;82.70;;;;;;5054093;28;20464;-69
2023/06/02 01:11:32;;;;;;;7.25;5.85;;;20.70;82.30;;;;;;5053907;28;20160;-69
2023/06/02 01:13:59;;;;;;;13.60;6.75;;;20.70;82.60;;;;;;5053597;28;20017;-69
2023/06/02 01:16:26;;;;;;;8.82;6.40;;;20.70;82.90;;;;;;5053744;28;20029;-69
2023/06/02 01:18:53;;;;;;;8.63;5.50;;;20.70;82.90;;;;;;5053423;28;20025;-69
2023/06/02 01:21:23;;;;;;;14.75;6.22;;;20.60;83.00;;;;;;5053464;28;20036;-69
2023/06/02 01:23:57;;;;;;;10.20;5.75;;;20.60;83.00;;;;;;5053732;28;20029;-69
2023/06/02 01:26:29;;;;;;;10.77;6.22;;;20.60;83.30;;;;;;5053590;28;20129;-71
2023/06/02 01:28:54;;;;;;;;;;;20.60;83.60;;;;;;5053799;28;20055;-71
2023/06/02 01:31:28;;;;;;;9.38;6.05;;;20.60;83.90;;;;;;5035683;28;19956;-71
2023/06/02 01:33:59;;;;;;;10.15;6.70;;;20.50;84.20;;;;;;5053285;28;20039;-71
2023/06/02 01:36:28;;;;;;;14.00;6.22;;;20.50;84.00;;;;;;5052951;28;20031;-71
2023/06/02 01:38:57;;;;;;;9.02;6.35;;;20.50;84.10;;;;;;5053503;28;20021;-70
2023/06/02 01:41:25;;;;;;;12.23;6.47;;;20.50;84.30;;;;;;5053234;28;20032;-70
2023/06/02 01:43:52;;;;;;;13.98;6.38;;;20.40;84.90;;;;;;5053213;28;20120;-70
2023/06/02 01:46:18;;;;;;;8.88;6.78;;;20.50;84.10;;;;;;5054023;28;20040;-69
2023/06/02 01:48:44;;;;;;;11.25;6.10;;;20.40;83.90;;;;;;5053963;28;20032;-68
2023/06/02 01:51:10;;;;;;;9.77;6.20;;;20.50;84.10;;;;;;5053784;28;20028;-69
2023/06/02 01:53:36;;;;;;;9.57;6.15;;;20.50;84.10;;;;;;5036219;28;20104;-69
2023/06/02 01:56:02;;;;;;;11.93;6.18;;;20.40;84.00;;;;;;5053928;28;20029;-69
2023/06/02 02:16:18;;;;;;;15.38;6.50;;;20.30;83.70;;;;;;4857894;29;20105;-68
2023/06/02 02:22:01;;;;;;;10.82;6.25;;;20.30;83.60;;;;;;4873244;29;20032;-69
2023/06/02 02:24:27;;;;;;;9.25;6.32;;;20.20;83.40;;;;;;5010993;28;20061;-68
2023/06/02 02:26:53;;;;;;;12.02;6.28;;;20.20;83.40;;;;;;5053116;28;20056;-69
2023/06/02 02:29:19;;;;;;;10.48;6.78;;;20.20;83.60;;;;;;5052717;28;20104;-68
2023/06/02 02:31:44;;;;;;;11.52;6.68;;;20.10;83.80;;;;;;5052473;28;20033;-69
2023/06/02 02:34:10;;;;;;;9.15;6.28;;;20.10;83.80;;;;;;5052866;28;20032;-69
2023/06/02 02:36:36;;;;;;;10.57;6.80;;;20.10;83.90;;;;;;5052714;28;20037;-69
2023/06/02 02:39:03;;;;;;;7.90;6.30;;;20.00;84.00;;;;;;5052417;28;20028;-69
2023/06/02 02:41:29;;;;;;;12.60;6.60;;;20.00;84.20;;;;;;5052125;28;20091;-68
2023/06/02 02:43:55;;;;;;;9.60;7.13;;;20.00;84.30;;;;;;5034847;28;20477;-69
2023/06/02 02:46:20;;;;;;;12.13;6.47;;;20.00;84.50;;;;;;5052421;28;20041;-68
2023/06/02 02:48:46;;;;;;;9.57;7.00;;;19.90;84.30;;;;;;5052558;28;20087;-69
2023/06/02 02:51:13;;;;;;;7.35;6.20;;;19.90;84.20;;;;;;5052142;28;20120;-69
2023/06/02 02:53:39;;;;;;;9.77;6.70;;;19.90;84.30;;;;;;5052169;28;20503;-68
2023/06/02 02:56:06;;;;;;;13.25;7.00;;;20.00;84.50;;;;;;5052640;28;20056;-69
2023/06/02 02:58:32;;;;;;;11.02;6.70;;;19.90;85.10;;;;;;5052505;28;20495;-69
2023/06/02 03:00:58;;;;;;;15.23;6.82;;;19.90;84.80;;;;;;5052152;28;20104;-69
2023/06/02 03:03:24;;;;;;;12.57;6.90;;;19.90;84.60;;;;;;5052476;28;20029;-69
2023/06/02 03:05:49;;;;;;;13.45;6.63;;;19.80;84.50;;;;;;5052412;28;20112;-68
2023/06/02 03:08:17;;;;;;;10.80;6.57;;;19.80;84.30;;;;;;5052248;28;20036;-69
2023/06/02 03:10:45;;;;;;;15.38;6.40;;;19.80;84.30;;;;;;5052482;28;20036;-69
2023/06/02 03:13:10;;;;;;;12.98;6.30;;;19.80;84.30;;;;;;5053230;28;20413;-68
2023/06/02 03:15:36;;;;;;;13.55;6.55;;;19.70;84.50;;;;;;5056026;28;20036;-69
2023/06/02 03:18:03;;;;;;;16.65;6.88;;;19.70;84.80;;;;;;5055880;28;20051;-69
2023/06/02 03:20:29;;;;;;;13.30;7.07;;;19.70;84.70;;;;;;5056249;28;20500;-68
2023/06/02 03:22:55;;;;;;;16.05;6.13;;;19.70;84.60;;;;;;5056311;28;20025;-68
2023/06/02 03:25:22;;;;;;;17.17;7.22;;;19.70;84.80;;;;;;5056586;28;20412;-69
2023/06/02 03:27:49;;;;;;;11.15;6.45;;;19.70;84.80;;;;;;5056418;28;20036;-69
2023/06/02 03:30:16;;;;;;;13.85;6.65;;;19.70;84.90;;;;;;5056464;28;20024;-69
2023/06/02 03:50:44;;;;;;;11.45;6.43;;;19.60;86.10;;;;;;4898286;29;20557;-68
2023/06/02 03:53:19;;;;;;;12.82;6.15;;;19.60;86.30;;;;;;4896728;28;20037;-68
2023/06/02 03:56:20;;;;;;;14.85;6.00;;;19.60;86.30;;;;;;4994163;28;20404;-69
2023/06/02 03:58:46;;;;;;;8.30;6.45;;;19.60;86.20;;;;;;4994435;28;20030;-69
2023/06/02 04:01:12;;;;;;;9.68;6.55;;;19.60;86.20;;;;;;4982695;28;20026;-68
2023/06/02 04:03:41;;;;;;;8.27;6.20;;;19.60;86.00;;;;;;5055373;28;20021;-69
2023/06/02 04:06:08;;;;;;;9.57;5.97;;;19.60;85.90;;;;;;5054985;28;20043;-68
2023/06/02 04:08:34;;;;;;;10.68;6.10;;;19.60;85.90;;;;;;5055309;28;20429;-69
2023/06/02 04:11:00;;;;;;;6.60;5.50;;;19.60;86.00;;;;;;5037100;28;20393;-69
2023/06/02 04:13:28;;;;;;;7.82;6.30;;;19.60;86.20;;;;;;5054926;28;20045;-69
2023/06/02 04:15:53;;;;;;;8.48;6.10;;;19.70;86.40;;;;;;5055123;28;20025;-69
2023/06/02 04:18:19;;;;;;;9.02;6.22;;;19.70;86.40;;;;;;5055028;28;20025;-69
2023/06/02 04:20:45;;;;;;;11.43;6.15;;;19.70;86.10;;;;;;5055158;28;20031;-69
2023/06/02 04:23:11;;;;;;;11.25;6.05;;;19.70;86.00;;;;;;5054805;28;20128;-69
2023/06/02 04:25:36;;;;;;;11.18;6.75;;;19.70;85.90;;;;;;5054032;28;20029;-69
2023/06/02 04:28:02;;;;;;;12.93;5.93;;;19.70;86.10;;;;;;5054934;28;20105;-69
2023/06/02 04:30:28;;;;;;;20.27;6.57;;;19.70;86.10;;;;;;5054902;28;20022;-69
2023/06/02 04:32:54;;;;;;;24.50;6.60;;;19.70;86.10;;;;;;5054917;28;20025;-69
2023/06/02 04:35:20;;;;;;;15.10;6.10;;;19.70;86.20;;;;;;5054167;28;20104;-69
2023/06/02 04:37:46;;;;;;;12.48;6.25;;;19.70;86.40;;;;;;5036820;28;20108;-71
2023/06/02 04:40:13;;;;;;;13.10;6.00;;;19.70;86.40;;;;;;5054682;28;20028;-71
2023/06/02 04:42:39;;;;;;;8.73;5.45;;;19.80;86.80;;;;;;5054640;28;20488;-71
2023/06/02 04:45:13;;;;;;;12.63;5.50;;;19.70;86.90;;;;;;5054398;28;20037;-71
2023/06/02 04:47:40;;;;;;;9.00;5.75;;;19.80;86.90;;;;;;5054923;28;20064;-71
2023/06/02 04:50:11;;;;;;;11.18;6.60;;;19.80;86.70;;;;;;5054669;28;20029;-71
2023/06/02 04:52:41;;;;;;;11.27;6.47;;;19.80;86.80;;;;;;5054695;28;20025;-71
2023/06/02 04:55:08;;;;;;;11.85;6.47;;;19.80;87.20;;;;;;5054673;28;20100;-71
2023/06/02 04:57:36;;;;;;;8.93;5.90;;;19.80;87.10;;;;;;5055088;28;20410;-69
2023/06/02 05:00:06;;;;;;;8.15;6.43;;;19.80;87.10;;;;;;5054284;28;20025;-68
2023/06/02 05:02:32;;;;;;;13.60;6.13;;;19.90;87.30;;;;;;5054274;28;20392;-68
2023/06/02 05:04:58;;;;;;;10.23;6.18;;;19.90;87.30;;;;;;5054711;28;20033;-68
2023/06/02 05:07:27;;;;;;;10.93;6.40;;;19.90;87.40;;;;;;5054956;28;20103;-67
2023/06/02 05:10:00;;;;;;;14.52;6.20;;;19.90;87.70;;;;;;5054597;28;20064;-68
2023/06/02 05:13:01;;;;;;;6.93;5.75;;;19.90;87.90;;;;;;5054124;28;20074;-68
2023/06/02 05:16:32;;;;;;;13.98;6.50;;;20.00;87.80;;;;;;4992347;28;20065;-68
2023/06/02 05:23:40;;;;;;;13.55;5.78;;;20.10;87.60;;;;;;4993054;28;20096;-69
2023/06/02 05:26:48;;;;;;;8.38;5.43;;;20.10;87.50;;;;;;4992207;28;20475;-68
2023/06/02 05:32:49;;;;;;;8.02;6.20;;;20.20;88.10;;;;;;5029602;28;20060;-69
2023/06/02 05:35:15;;;;;;;14.75;6.30;;;20.20;88.10;;;;;;5031537;28;20033;-69
2023/06/02 05:37:42;;;;;;;10.82;5.53;;;20.30;88.20;;;;;;5041922;28;20033;-68
2023/06/02 05:40:10;;;;;;;11.77;6.13;;;20.30;88.20;;;;;;5053355;28;20396;-69
2023/06/02 05:42:35;;;;;;;12.38;6.60;;;20.30;88.10;;;;;;5053485;28;20061;-69
2023/06/02 05:45:05;;;;;;;15.27;6.00;;;20.40;88.10;;;;;;5035547;28;20079;-69
2023/06/02 05:47:31;;;;;;;17.08;6.10;;;20.40;88.20;;;;;;5053451;28;20028;-69
2023/06/02 05:49:58;;;;;;;11.15;5.70;;;20.40;88.20;;;;;;5053390;28;20051;-69
2023/06/02 05:52:23;;;;;;;13.27;6.85;;;20.40;88.40;;;;;;5053117;28;20381;-69
2023/06/02 05:54:50;;;;;;;19.10;6.45;;;20.40;88.20;;;;;;5052118;28;20033;-69
2023/06/02 05:57:17;;;;;;;15.55;6.30;;;20.50;88.10;;;;;;5052873;28;20017;-69
2023/06/02 05:59:43;;;;;;;17.75;6.53;;;20.50;88.30;;;;;;5052874;28;20390;-69
2023/06/02 06:02:09;;;;;;;13.35;6.10;;;20.50;87.50;;;;;;5052682;28;20389;-69
2023/06/02 06:04:35;;;;;;;11.73;6.28;;;20.60;87.50;;;;;;5053084;28;20021;-69
2023/06/02 06:07:02;;;;;;;12.82;6.60;;;20.60;87.20;;;;;;5052905;28;20024;-69
2023/06/02 06:09:28;;;;;;;10.73;6.38;;;20.60;87.10;;;;;;5052649;28;20517;-70
2023/06/02 06:11:54;;;;;;;7.85;6.07;;;20.60;87.00;;;;;;5052676;28;20110;-69
2023/06/02 06:14:20;;;;;;;9.35;5.93;;;20.70;87.10;;;;;;5027067;28;20045;-69
2023/06/02 06:16:46;;;;;;;13.75;5.97;;;20.70;87.10;;;;;;5032204;28;20030;-69
2023/06/02 06:19:11;;;;;;;12.15;5.80;;;20.70;87.00;;;;;;5032211;28;20021;-69
2023/06/02 06:21:38;;;;;;;17.40;6.13;;;20.70;86.90;;;;;;5032402;28;20048;-69
2023/06/02 06:24:05;;;;;;;14.18;5.90;;;20.80;87.00;;;;;;5032839;28;20393;-69
2023/06/02 06:26:31;;;;;;;14.95;5.93;;;20.80;86.90;;;;;;5032967;28;20039;-68
2023/06/02 06:28:57;;;;;;;13.10;5.88;;;20.90;86.80;;;;;;5032538;28;20049;-68
2023/06/02 06:31:24;;;;;;;11.38;5.97;;;20.90;86.60;;;;;;5032366;28;20478;-68
2023/06/02 06:33:50;;;;;;;13.48;6.05;;;21.00;86.60;;;;;;5033047;28;20021;-68
2023/06/02 06:36:15;;;;;;;12.15;6.15;;;21.00;86.50;;;;;;5032959;28;20048;-68
2023/06/02 06:38:41;;;;;;;10.35;5.90;;;21.10;86.40;;;;;;5032727;28;20026;-68
2023/06/02 06:41:07;;;;;;;17.73;6.07;;;21.10;86.40;;;;;;5032436;28;20030;-68
2023/06/02 06:43:33;;;;;;;15.20;6.03;;;21.20;86.20;;;;;;5033347;28;20025;-68
2023/06/02 06:50:02;;;;;;;8.65;5.82;;;21.30;86.00;;;;;;4894870;29;20578;-69
2023/06/02 06:53:09;;;;;;;10.10;5.30;;;21.40;85.70;;;;;;4960146;28;20031;-69
2023/06/02 06:56:02;;;;;;;13.32;5.63;;;21.50;85.30;;;;;;4985784;28;20458;-69
2023/06/02 07:01:44;;;;;;;11.32;5.80;;;21.60;84.80;;;;;;4989999;28;20117;-68
2023/06/02 07:04:10;;;;;;;7.05;5.20;;;21.70;84.20;;;;;;5006837;28;20037;-69
2023/06/02 07:06:57;;;;;;;14.02;5.53;;;21.70;84.00;;;;;;5031977;28;20038;-70
2023/06/02 07:09:24;;;;;;;9.98;4.90;;;21.80;83.40;;;;;;5032172;28;20390;-68
2023/06/02 07:11:51;;;;;;;13.63;5.88;;;21.90;83.20;;;;;;5032401;28;20429;-68
2023/06/02 07:14:17;;;;;;;9.63;5.88;;;21.90;83.30;;;;;;5039012;28;20382;-69
2023/06/02 07:16:48;;;;;;;8.82;6.07;;;21.90;83.20;;;;;;5052201;28;20032;-69
2023/06/02 07:19:14;;;;;;;11.75;5.82;;;22.00;83.80;;;;;;5051257;28;20028;-69
2023/06/02 07:21:40;;;;;;;8.38;5.43;;;22.10;83.70;;;;;;5051734;28;20377;-70
2023/06/02 07:24:05;;;;;;;10.80;6.22;;;22.10;83.40;;;;;;5051984;28;20025;-70
2023/06/02 07:26:31;;;;;;;7.75;5.68;;;22.10;83.30;;;;;;5052005;28;20091;-70
2023/06/02 07:28:57;;;;;;;12.25;5.97;;;22.20;83.20;;;;;;5052156;28;20037;-70
2023/06/02 07:31:23;;;;;;;6.35;5.32;;;22.20;82.90;;;;;;5052189;28;20017;-71
2023/06/02 07:33:49;;;;;;;8.27;6.00;;;22.20;82.50;;;;;;5052340;28;20032;-70
2023/06/02 07:36:15;;;;;;;8.68;5.95;;;22.20;82.40;;;;;;5052452;28;20032;-71
2023/06/02 07:38:40;;;;;;;9.23;5.80;;;22.30;82.50;;;;;;5052423;28;20036;-70
2023/06/02 07:41:06;;;;;;;9.57;5.63;;;22.30;82.70;;;;;;5052108;28;20056;-71
2023/06/02 07:43:32;;;;;;;9.93;6.13;;;22.40;83.10;;;;;;5052186;28;20013;-70
2023/06/02 07:45:58;;;;;;;11.82;6.10;;;22.40;83.30;;;;;;5052283;28;20037;-70
2023/06/02 07:48:24;;;;;;;11.25;6.22;;;22.50;83.20;;;;;;5052137;28;20025;-71
2023/06/02 07:50:49;;;;;;;8.52;5.78;;;22.50;82.90;;;;;;5052152;28;20017;-71
2023/06/02 07:53:15;;;;;;;9.15;6.07;;;22.50;82.80;;;;;;5052239;28;20029;-71
2023/06/02 07:55:41;;;;;;;8.63;6.05;;;22.60;82.70;;;;;;5051688;28;20104;-70
2023/06/02 07:58:08;;;;;;;9.90;6.13;;;22.60;82.90;;;;;;5052189;28;20056;-71
2023/06/02 08:00:36;;;;;;;11.15;6.60;;;22.60;83.00;;;;;;5053149;28;20021;-70
2023/06/02 08:03:03;;;;;;;9.45;5.32;;;22.70;82.90;;;;;;5055491;28;20078;-70
2023/06/02 08:05:28;;;;;;;10.23;6.15;;;22.70;82.70;;;;;;5055337;28;20469;-70
2023/06/02 08:07:54;;;;;;;11.20;5.72;;;22.80;83.10;;;;;;5055583;28;20091;-69
2023/06/02 08:10:20;;;;;;;8.70;5.57;;;22.90;83.10;;;;;;5088972;22;20498;-80
2023/06/02 08:12:46;;;;;;;9.18;5.93;;;22.90;82.30;;;;;;5095764;28;20035;-79
2023/06/02 08:15:11;;;;;;;11.38;6.10;;;23.00;82.10;;;;;;5096325;28;20020;-80
2023/06/02 08:17:37;;;;;;;7.55;6.00;;;23.10;82.50;;;;;;5094446;28;20028;-81
2023/06/02 08:20:05;;;;;;;8.90;5.40;;;23.10;81.80;;;;;;5095590;28;20142;-81
2023/06/02 08:22:32;;;;;;;8.15;6.03;;;23.10;82.10;;;;;;5095264;28;20021;-81
2023/06/02 08:24:58;;;;;;;8.13;5.63;;;23.20;81.70;;;;;;5096072;28;20526;-81
2023/06/02 08:27:24;;;;;;;7.10;5.75;;;23.30;81.30;;;;;;5095400;28;20020;-79
2023/06/02 08:29:51;;;;;;;8.02;5.20;;;23.30;81.00;;;;;;5095383;28;20032;-80
2023/06/02 08:32:17;;;;;;;13.07;5.60;;;23.40;80.80;;;;;;5077274;28;20024;-81
2023/06/02 08:34:50;;;;;;;8.73;5.80;;;23.50;80.30;;;;;;5095388;28;20038;-80
2023/06/02 08:37:17;;;;;;;10.60;6.00;;;23.50;80.30;;;;;;5095263;28;20024;-79
2023/06/02 08:39:48;;;;;;;7.63;5.40;;;23.60;79.70;;;;;;5095077;28;20125;-79
2023/06/02 08:42:15;;;;;;;6.97;5.75;;;23.60;78.80;;;;;;5095117;28;20020;-81
2023/06/02 08:44:42;;;;;;;10.05;5.80;;;23.70;78.50;;;;;;5094737;28;20043;-80
2023/06/02 08:47:11;;;;;;;6.90;5.18;;;23.70;78.40;;;;;;5094943;28;20020;-80
2023/06/02 08:49:45;;;;;;;10.68;5.72;;;23.70;78.40;;;;;;5094723;28;20028;-79
2023/06/02 08:52:15;;;;;;;13.63;5.80;;;23.80;78.80;;;;;;5095002;28;20113;-79
2023/06/02 08:54:42;;;;;;;14.85;5.70;;;23.90;79.10;;;;;;5094889;28;20356;-80
2023/06/02 08:57:12;;;;;;;7.70;5.22;;;24.00;78.80;;;;;;5094842;28;20099;-80
2023/06/02 08:59:39;;;;;;;5.97;5.38;;;24.00;77.70;;;;;;5094821;28;20164;-80
2023/06/02 09:02:06;;;;;;;12.52;5.65;;;24.00;77.60;;;;;;5094590;28;20016;-80
2023/06/02 09:04:31;;;;;;;12.27;6.03;;;24.10;78.40;;;;;;5094635;28;20027;-79
2023/06/02 09:07:12;;;;;;;8.65;5.38;;;24.20;78.20;;;;;;5094736;28;20107;-80
2023/06/02 09:09:46;;;;;;;10.95;5.65;;;24.20;76.80;;;;;;5076438;28;20102;-80
2023/06/02 09:12:13;;;;;;;8.23;5.55;;;24.30;76.40;;;;;;5094131;28;20031;-79
2023/06/02 09:14:39;;;;;;;11.32;6.32;;;24.30;76.30;;;;;;5094233;28;20506;-80
2023/06/02 09:17:28;;;;;;;10.63;5.60;;;24.40;76.40;;;;;;5094627;28;20050;-80
2023/06/02 09:20:01;;;;;;;11.07;5.68;;;24.50;76.80;;;;;;5094395;28;20032;-79
2023/06/02 09:22:26;;;;;;;9.90;5.50;;;24.50;76.70;;;;;;5094382;28;20046;-80
2023/06/02 09:24:53;;;;;;;11.00;5.50;;;24.60;75.80;;;;;;5076092;28;20036;-79
2023/06/02 09:27:19;;;;;;;12.65;5.50;;;24.50;74.30;;;;;;5094114;28;20014;-81
2023/06/02 09:29:47;;;;;;;8.63;5.53;;;24.60;75.00;;;;;;5094314;28;20028;-79
2023/06/02 09:32:14;;;;;;;10.63;5.55;;;24.70;74.80;;;;;;5094379;28;20063;-80
2023/06/02 09:34:41;;;;;;;7.07;5.13;;;24.70;74.40;;;;;;5093966;28;20020;-81
2023/06/02 09:37:09;;;;;;;8.70;5.70;;;24.80;74.10;;;;;;5093892;28;20107;-79
2023/06/02 09:39:48;;;;;;;10.65;5.63;;;24.90;74.00;;;;;;5093793;28;20027;-81
2023/06/02 09:42:16;;;;;;;11.13;5.00;;;24.90;74.20;;;;;;5094015;28;20487;-79
2023/06/02 09:45:05;;;;;;;6.53;5.22;;;25.00;73.40;;;;;;5093811;28;20361;-81
2023/06/02 09:47:40;;;;;;;7.10;4.55;;;25.10;73.00;;;;;;5093587;28;20028;-80
2023/06/02 09:50:07;;;;;;;11.63;5.40;;;25.10;73.10;;;;;;5093852;28;20027;-80
2023/06/02 09:52:33;;;;;;;10.65;5.13;;;25.10;72.10;;;;;;5093712;28;20557;-79
2023/06/02 09:55:00;;;;;;;6.00;5.40;;;25.20;71.00;;;;;;5093955;28;20052;-81
2023/06/02 09:57:26;;;;;;;6.22;5.15;;;25.30;70.80;;;;;;5093523;28;20035;-80
2023/06/02 09:59:52;;;;;;;9.88;5.40;;;25.30;71.30;;;;;;5093577;28;20023;-81
2023/06/02 10:02:18;;;;;;;6.75;5.63;;;25.40;71.30;;;;;;5093422;28;20020;-78
2023/06/02 10:04:45;;;;;;;7.32;5.07;;;25.40;71.30;;;;;;5093537;28;20107;-80
2023/06/02 10:07:20;;;;;;;11.05;4.70;;;25.50;72.00;;;;;;5093408;28;20499;-80
2023/06/02 10:10:16;;;;;;;7.10;4.82;;;25.50;71.70;;;;;;5093336;28;20177;-80
2023/06/02 10:13:02;;;;;;;9.35;4.93;;;25.60;71.40;;;;;;5093413;28;20012;-80
2023/06/02 10:15:46;;;;;;;6.15;5.07;;;25.70;70.70;;;;;;5093206;28;20030;-80
2023/06/02 10:18:30;;;;;;;8.13;5.30;;;25.70;70.10;;;;;;5093173;28;20475;-78
2023/06/02 10:21:30;;;;;;;7.00;4.90;;;25.80;70.70;;;;;;5093477;28;20027;-80
2023/06/02 10:24:01;;;;;;;7.47;4.53;;;25.80;70.40;;;;;;5092830;28;20410;-80
2023/06/02 10:26:57;;;;;;;11.80;5.60;;;25.80;69.80;;;;;;5093159;28;20112;-81
2023/06/02 10:29:28;;;;;;;26.60;6.53;;;25.80;70.70;;;;;;5093253;28;20024;-78
2023/06/02 10:31:53;;;;;;;8.50;4.90;;;25.80;69.60;;;;;;5092890;28;20024;-80
2023/06/02 10:34:34;;;;;;;6.13;4.90;;;25.80;69.20;;;;;;5093095;28;20024;-81
2023/06/02 10:37:00;;;;;;;9.63;4.90;;;25.80;68.50;;;;;;5093096;28;20447;-81
2023/06/02 10:39:41;;;;;;;12.43;5.47;;;25.80;69.40;;;;;;5092998;28;20096;-80
2023/06/02 10:42:08;;;;;;;8.48;4.72;;;25.80;69.20;;;;;;5092825;28;20031;-80
2023/06/02 10:44:34;;;;;;;9.60;4.50;;;25.90;68.60;;;;;;5092853;28;20020;-80
2023/06/02 10:47:18;;;;;;;6.38;4.70;;;25.90;67.30;;;;;;5092948;28;20498;-80
2023/06/02 10:49:55;;;;;;;8.18;4.78;;;26.00;67.40;;;;;;5092745;28;20021;-79
2023/06/02 10:52:21;;;;;;;9.25;4.82;;;26.10;67.10;;;;;;5092876;28;20031;-80
2023/06/02 10:55:09;;;;;;;13.93;4.55;;;26.10;66.10;;;;;;5092828;28;21098;-80
2023/06/02 10:57:50;;;;;;;9.02;4.40;;;26.20;66.00;;;;;;5092659;28;20024;-80
2023/06/02 11:00:40;;;;;;;10.82;4.60;;;26.30;65.80;;;;;;5092629;28;20056;-80
2023/06/02 11:03:15;;;;;;;12.27;4.72;;;26.30;67.20;;;;;;5092570;28;20020;-79
2023/06/02 11:05:41;;;;;;;7.80;4.75;;;26.40;66.30;;;;;;5092688;28;20085;-81
2023/06/02 11:08:21;;;;;;;9.02;4.82;;;26.40;66.70;;;;;;5092708;28;20102;-80
2023/06/02 11:10:54;;;;;;;7.22;4.90;;;26.50;66.90;;;;;;5092550;28;20056;-79
2023/06/02 11:13:25;;;;;;;6.45;5.07;;;26.50;64.50;;;;;;5073281;28;20415;-78
2023/06/02 11:15:53;;;;;;;5.60;4.72;;;26.50;63.80;;;;;;5090437;28;20024;-80
2023/06/02 11:18:22;;;;;;;9.48;4.47;;;26.50;63.70;;;;;;5091418;28;20527;-80
2023/06/02 11:20:50;;;;;;;8.85;5.07;;;26.60;64.80;;;;;;5074805;28;20036;-80
2023/06/02 11:23:20;;;;;;;6.85;4.50;;;26.60;65.50;;;;;;5092648;28;20020;-80
2023/06/02 11:25:46;;;;;;;5.97;5.07;;;26.70;64.50;;;;;;5092675;28;20483;-80
2023/06/02 11:28:22;;;;;;;8.95;4.90;;;26.70;63.40;;;;;;5074533;28;20020;-79
2023/06/02 11:31:03;;;;;;;6.05;4.55;;;26.80;63.70;;;;;;5092667;28;20484;-80
2023/06/02 11:33:34;;;;;;;7.03;4.53;;;26.80;64.10;;;;;;5092314;28;20029;-80
2023/06/02 11:36:01;;;;;;;9.05;4.78;;;26.90;64.60;;;;;;5096420;28;20020;-80
2023/06/02 11:38:31;;;;;;;4.90;3.90;;;27.00;65.30;;;;;;5094546;28;20361;-81
2023/06/02 11:41:11;;;;;;;5.40;4.55;;;27.00;65.40;;;;;;5093678;28;20024;-80
2023/06/02 11:43:38;;;;;;;8.45;4.88;;;27.10;65.10;;;;;;5093558;28;20395;-79
2023/06/02 11:46:08;;;;;;;6.78;4.00;;;27.10;64.70;;;;;;5095437;28;20043;-79
2023/06/02 11:48:38;;;;;;;6.97;4.57;;;27.20;63.60;;;;;;5095953;28;20028;-80
2023/06/02 11:51:12;;;;;;;5.55;4.43;;;27.30;63.20;;;;;;5095864;28;20028;-80
2023/06/02 11:53:44;;;;;;;7.80;4.22;;;27.40;64.40;;;;;;5095509;28;20024;-80
2023/06/02 11:56:14;;;;;;;7.47;4.93;;;27.40;63.70;;;;;;5096027;28;20020;-80
2023/06/02 11:58:44;;;;;;;6.30;4.68;;;27.40;64.00;;;;;;5095956;28;20106;-81
2023/06/02 12:01:18;;;;;;;7.85;5.10;;;27.50;63.20;;;;;;5095813;28;20472;-80
2023/06/02 12:04:06;;;;;;;9.43;4.72;;;27.60;63.10;;;;;;5095992;28;20055;-80
2023/06/02 12:06:40;;;;;;;8.38;4.30;;;27.60;62.90;;;;;;5095406;28;20043;-79
2023/06/02 12:09:11;;;;;;;5.60;4.20;;;27.70;62.50;;;;;;5095918;28;20054;-79
2023/06/02 12:11:37;;;;;;;8.23;4.85;;;27.70;62.90;;;;;;5095642;28;20044;-80
2023/06/02 12:14:04;;;;;;;12.15;6.68;;;27.80;61.80;;;;;;5095774;28;20093;-79
2023/06/02 12:16:31;;;;;;;7.45;4.70;;;27.80;59.50;;;;;;5095605;28;20074;-80
2023/06/02 12:19:14;;;;;;;9.98;4.68;;;27.80;59.80;;;;;;5095465;28;20093;-80
2023/06/02 12:21:40;;;;;;;7.45;5.15;;;27.90;60.70;;;;;;5095935;28;20020;-79
2023/06/02 12:24:07;;;;;;;7.00;4.95;;;27.90;61.00;;;;;;5095687;28;20031;-78
2023/06/02 12:26:44;;;;;;;8.60;4.20;;;27.90;60.40;;;;;;5077432;28;20487;-80
2023/06/02 12:29:10;;;;;;;7.70;4.30;;;28.00;59.60;;;;;;5095539;28;20388;-80
2023/06/02 12:31:37;;;;;;;7.13;4.53;;;28.00;58.60;;;;;;5095324;28;20476;-80
2023/06/02 12:34:05;;;;;;;7.82;4.20;;;28.00;58.80;;;;;;5095557;28;20047;-80
2023/06/02 12:36:31;;;;;;;8.93;4.20;;;28.00;58.90;;;;;;5095337;28;20024;-79
2023/06/02 12:38:59;;;;;;;5.60;4.57;;;28.00;58.30;;;;;;5095276;28;20016;-81
2023/06/02 12:41:26;;;;;;;5.82;4.57;;;27.90;58.80;;;;;;5095179;28;20028;-80
2023/06/02 12:43:52;;;;;;;5.18;4.40;;;27.90;60.00;;;;;;5094895;28;20516;-80
2023/06/02 12:46:18;;;;;;;9.52;5.07;;;27.90;60.90;;;;;;5093672;28;20510;-81
2023/06/02 12:48:43;;;;;;;8.13;4.78;;;27.80;61.20;;;;;;5094644;28;20012;-81
2023/06/02 12:51:09;;;;;;;6.03;4.60;;;27.70;61.10;;;;;;5096258;28;20028;-82
2023/06/02 12:53:35;;;;;;;5.72;4.65;;;27.70;61.30;;;;;;5094949;28;20056;-82
2023/06/02 12:56:01;;;;;;;7.32;4.57;;;27.60;62.00;;;;;;5094465;28;20486;-75
2023/06/02 12:58:27;;;;;;;9.15;4.45;;;27.60;62.40;;;;;;5094044;28;20030;-82
2023/06/02 13:00:53;;;;;;;9.10;5.45;;;27.50;62.60;;;;;;5094054;28;20024;-80
2023/06/02 13:03:19;;;;;;;6.60;4.50;;;27.50;62.80;;;;;;5093901;28;20081;-79
2023/06/02 13:05:58;;;;;;;10.52;4.88;;;27.40;62.30;;;;;;5093819;28;20031;-80
2023/06/02 13:08:25;;;;;;;7.18;4.47;;;27.50;62.70;;;;;;5093850;28;20136;-80
2023/06/02 13:10:51;;;;;;;7.78;4.97;;;27.40;62.50;;;;;;5091348;28;20032;-82
2023/06/02 13:13:16;;;;;;;6.47;4.53;;;27.50;63.20;;;;;;5093809;28;20031;-81
2023/06/02 13:15:42;;;;;;;7.18;4.75;;;27.50;63.00;;;;;;5094070;28;20624;-82
2023/06/02 13:18:09;;;;;;;8.27;4.78;;;27.50;62.90;;;;;;5093919;28;20028;-83
2023/06/02 13:20:35;;;;;;;7.45;4.30;;;27.50;62.30;;;;;;5093860;28;20028;-81
2023/06/02 13:23:01;;;;;;;11.23;4.65;;;27.40;61.30;;;;;;5094038;28;20031;-79
2023/06/02 13:25:26;;;;;;;9.15;5.38;;;27.40;61.40;;;;;;5093557;28;20024;-77
2023/06/02 13:27:52;;;;;;;11.35;5.28;;;27.30;62.80;;;;;;5093753;28;20035;-76
2023/06/02 13:30:20;;;;;;;10.02;5.60;;;27.20;63.70;;;;;;5093561;28;20020;-74
2023/06/02 13:32:46;;;;;;;11.45;5.55;;;27.10;64.30;;;;;;5093461;28;20498;-75
2023/06/02 13:35:11;;;;;;;9.38;6.22;;;27.10;66.80;;;;;;5093447;28;20016;-74
2023/06/02 13:37:37;;;;;;;10.93;6.00;;;26.90;66.80;;;;;;5093082;28;20023;-75
2023/06/02 13:40:04;;;;;;;7.75;5.45;;;26.60;66.10;;;;;;5093231;28;20034;-76
2023/06/02 13:42:30;;;;;;;8.48;5.63;;;26.50;64.10;;;;;;5090817;28;20016;-75
2023/06/02 13:44:56;;;;;;;10.48;5.40;;;26.30;61.60;;;;;;5093292;28;20043;-75
2023/06/02 13:47:22;;;;;;;8.48;5.53;;;26.20;61.80;;;;;;5093316;28;20091;-75
2023/06/02 13:49:47;;;;;;;8.07;4.90;;;26.00;61.80;;;;;;5093047;28;20059;-74
2023/06/02 13:52:13;;;;;;;8.57;4.88;;;26.00;61.50;;;;;;5093003;28;20020;-75
2023/06/02 13:54:39;;;;;;;6.95;4.72;;;25.90;62.30;;;;;;5093463;28;20482;-74
2023/06/02 13:57:06;;;;;;;6.95;4.50;;;25.80;60.90;;;;;;5092842;28;20024;-76
2023/06/02 13:59:32;;;;;;;7.57;4.90;;;25.70;61.20;;;;;;5093322;28;20516;-76
2023/06/02 14:01:58;;;;;;;7.78;4.55;;;25.60;61.40;;;;;;5092864;28;20397;-77
2023/06/02 14:04:25;;;;;;;10.23;5.45;;;25.50;61.60;;;;;;5092747;28;20093;-76
2023/06/02 14:06:51;;;;;;;6.93;5.13;;;25.40;62.10;;;;;;5090007;28;20028;-76